createdAt,value
2023-04-07T00:00:58.782Z,64.78
2023-04-07T00:01:58.816Z,64.78
2023-04-07T00:02:58.898Z,64.78
2023-04-07T00:03:59.363Z,64.78
2023-04-07T00:04:58.825Z,64.89
2023-04-07T00:05:58.765Z,64.99
2023-04-07T00:06:58.711Z,65.20
2023-04-07T00:07:58.716Z,65.41
2023-04-07T00:08:58.702Z,65.41
2023-04-07T00:09:58.743Z,65.61
2023-04-07T00:10:58.671Z,65.61
2023-04-07T00:11:58.682Z,65.51
2023-04-07T00:12:58.654Z,65.30
2023-04-07T00:13:58.659Z,65.20
2023-04-07T00:14:58.658Z,64.89
2023-04-07T00:15:58.695Z,64.89
2023-04-07T00:16:58.643Z,64.68
2023-04-07T00:17:58.684Z,64.68
2023-04-07T00:18:58.604Z,64.58
2023-04-07T00:19:58.614Z,64.78
2023-04-07T00:20:58.608Z,65.09
2023-04-07T00:21:58.634Z,65.09
2023-04-07T00:22:58.561Z,65.09
2023-04-07T00:23:58.563Z,64.58
2023-04-07T00:24:58.542Z,64.48
2023-04-07T00:25:58.534Z,64.99
2023-04-07T00:26:58.570Z,65.30
2023-04-07T00:27:58.506Z,65.20
2023-04-07T00:28:58.538Z,65.30
2023-04-07T00:29:58.489Z,65.72
2023-04-07T00:30:58.542Z,66.03
2023-04-07T00:31:58.480Z,66.23
2023-04-07T00:32:58.513Z,66.33
2023-04-07T00:33:58.485Z,66.54
2023-04-07T00:34:58.434Z,66.54
2023-04-07T00:35:58.443Z,66.64
2023-04-07T00:36:58.428Z,66.75
2023-04-07T00:37:58.427Z,66.75
2023-04-07T00:38:58.412Z,66.54
2023-04-07T00:39:58.430Z,66.13
2023-04-07T00:40:58.411Z,66.03
2023-04-07T00:41:58.383Z,66.03
2023-04-07T00:42:58.378Z,66.03
2023-04-07T00:43:58.361Z,66.03
2023-04-07T00:44:58.380Z,66.13
2023-04-07T00:45:58.449Z,65.92
2023-04-07T00:46:58.319Z,65.92
2023-04-07T00:47:58.426Z,65.92
2023-04-07T00:48:58.303Z,66.23
2023-04-07T00:49:58.289Z,66.33
2023-04-07T00:50:58.278Z,66.54
2023-04-07T00:51:58.289Z,66.75
2023-04-07T00:52:58.249Z,66.96
2023-04-07T00:53:58.283Z,66.85
2023-04-07T00:54:58.253Z,66.85
2023-04-07T00:55:58.256Z,66.96
2023-04-07T00:56:58.221Z,66.54
2023-04-07T00:57:58.260Z,66.44
2023-04-07T00:58:58.217Z,66.64
2023-04-07T00:59:58.212Z,66.51
2023-04-07T01:00:58.196Z,66.33
2023-04-07T01:01:58.319Z,66.41
2023-04-07T01:02:58.439Z,66.51
2023-04-07T01:03:58.489Z,66.30
2023-04-07T01:04:58.290Z,65.89
2023-04-07T01:05:58.124Z,65.69
2023-04-07T01:06:58.111Z,65.89
2023-04-07T01:07:58.110Z,66.10
2023-04-07T01:08:58.085Z,66.41
2023-04-07T01:09:58.143Z,66.10
2023-04-07T01:10:58.091Z,66.10
2023-04-07T01:11:58.068Z,66.20
2023-04-07T01:12:58.070Z,65.79
2023-04-07T01:13:58.214Z,66.10
2023-04-07T01:14:58.064Z,67.13
2023-04-07T01:15:58.080Z,67.34
2023-04-07T01:16:58.038Z,67.13
2023-04-07T01:17:58.046Z,67.24
2023-04-07T01:18:58.007Z,67.44
2023-04-07T01:19:58.075Z,67.44
2023-04-07T01:20:57.969Z,67.34
2023-04-07T01:21:57.981Z,67.34
2023-04-07T01:22:57.947Z,67.34
2023-04-07T01:23:57.947Z,66.82
2023-04-07T01:24:57.946Z,67.03
2023-04-07T01:25:57.944Z,67.34
2023-04-07T01:26:57.930Z,67.44
2023-04-07T01:27:57.914Z,67.13
2023-04-07T01:28:57.897Z,66.93
2023-04-07T01:29:57.907Z,66.82
2023-04-07T01:30:57.921Z,67.65
2023-04-07T01:31:57.882Z,68.78
2023-04-07T01:32:57.873Z,69.20
2023-04-07T01:33:57.868Z,70.12
2023-04-07T01:34:57.838Z,70.95
2023-04-07T01:35:57.849Z,71.44
2023-04-07T01:36:57.847Z,71.67
2023-04-07T01:37:57.819Z,71.33
2023-04-07T01:38:57.798Z,71.23
2023-04-07T01:39:57.809Z,71.54
2023-04-07T01:40:58.023Z,71.98
2023-04-07T01:41:57.782Z,72.36
2023-04-07T01:42:57.768Z,72.91
2023-04-07T01:43:57.755Z,73.02
2023-04-07T01:44:57.752Z,73.02
2023-04-07T01:45:57.777Z,73.43
2023-04-07T01:46:57.806Z,73.85
2023-04-07T01:47:57.797Z,74.57
2023-04-07T01:48:57.687Z,74.77
2023-04-07T01:49:57.694Z,74.57
2023-04-07T01:50:57.697Z,74.57
2023-04-07T01:51:57.712Z,74.98
2023-04-07T01:52:57.736Z,75.19
2023-04-07T01:53:57.814Z,75.19
2023-04-07T01:54:57.646Z,75.19
2023-04-07T01:55:57.645Z,75.09
2023-04-07T01:56:57.650Z,75.09
2023-04-07T01:57:57.651Z,75.60
2023-04-07T01:58:57.607Z,75.91
2023-04-07T01:59:57.606Z,76.12
2023-04-07T02:00:57.616Z,76.53
2023-04-07T02:01:57.750Z,76.32
2023-04-07T02:02:57.763Z,76.73
2023-04-07T02:03:57.897Z,76.94
2023-04-07T02:04:57.536Z,77.25
2023-04-07T02:05:57.526Z,78.08
2023-04-07T02:06:57.516Z,78.49
2023-04-07T02:07:57.520Z,79.22
2023-04-07T02:08:57.536Z,79.83
2023-04-07T02:09:57.549Z,79.73
2023-04-07T02:10:57.470Z,79.22
2023-04-07T02:11:57.476Z,79.46
2023-04-07T02:12:57.466Z,79.15
2023-04-07T02:13:57.447Z,79.05
2023-04-07T02:14:57.510Z,78.94
2023-04-07T02:15:57.463Z,79.36
2023-04-07T02:16:57.420Z,79.66
2023-04-07T02:17:57.444Z,79.97
2023-04-07T02:18:57.416Z,81.87
2023-04-07T02:19:57.393Z,82.70
2023-04-07T02:20:57.425Z,83.22
2023-04-07T02:21:57.375Z,82.08
2023-04-07T02:22:57.364Z,81.87
2023-04-07T02:23:57.527Z,82.50
2023-04-07T02:24:57.323Z,82.90
2023-04-07T02:25:57.634Z,83.32
2023-04-07T02:26:57.320Z,83.22
2023-04-07T02:27:57.314Z,83.11
2023-04-07T02:28:57.322Z,83.01
2023-04-07T02:29:57.296Z,83.22
2023-04-07T02:30:57.296Z,83.63
2023-04-07T02:31:57.350Z,83.84
2023-04-07T02:32:57.300Z,84.05
2023-04-07T02:33:57.259Z,83.90
2023-04-07T02:34:57.261Z,83.49
2023-04-07T02:35:57.241Z,83.90
2023-04-07T02:36:57.278Z,84.11
2023-04-07T02:37:57.223Z,83.70
2023-04-07T02:38:57.189Z,83.28
2023-04-07T02:39:57.207Z,83.39
2023-04-07T02:40:57.173Z,83.49
2023-04-07T02:41:57.169Z,82.80
2023-04-07T02:42:57.313Z,82.70
2023-04-07T02:43:57.586Z,83.01
2023-04-07T02:44:57.159Z,83.53
2023-04-07T02:45:57.199Z,83.73
2023-04-07T02:46:57.097Z,83.70
2023-04-07T02:47:57.154Z,83.80
2023-04-07T02:48:57.135Z,83.90
2023-04-07T02:49:57.079Z,83.07
2023-04-07T02:50:57.092Z,82.56
2023-04-07T02:51:57.071Z,82.66
2023-04-07T02:52:57.054Z,82.87
2023-04-07T02:53:57.290Z,82.87
2023-04-07T02:54:57.071Z,83.49
2023-04-07T02:55:57.033Z,83.80
2023-04-07T02:56:57.013Z,84.21
2023-04-07T02:57:57.015Z,84.21
2023-04-07T02:58:57.010Z,84.11
2023-04-07T02:59:57.031Z,83.90
2023-04-07T03:00:57.018Z,84.00
2023-04-07T03:01:57.111Z,82.87
2023-04-07T03:02:57.099Z,82.97
2023-04-07T03:03:57.355Z,82.93
2023-04-07T03:04:56.959Z,83.04
2023-04-07T03:05:56.938Z,83.34
2023-04-07T03:06:56.916Z,83.14
2023-04-07T03:07:56.926Z,83.25
2023-04-07T03:08:56.912Z,83.65
2023-04-07T03:09:56.885Z,83.97
2023-04-07T03:10:56.888Z,84.07
2023-04-07T03:11:56.879Z,84.28
2023-04-07T03:12:56.859Z,84.38
2023-04-07T03:13:56.849Z,84.28
2023-04-07T03:14:56.845Z,84.17
2023-04-07T03:15:56.826Z,84.07
2023-04-07T03:16:56.872Z,83.97
2023-04-07T03:17:56.827Z,83.97
2023-04-07T03:18:56.796Z,84.17
2023-04-07T03:19:56.802Z,84.38
2023-04-07T03:20:56.774Z,84.38
2023-04-07T03:21:56.775Z,84.38
2023-04-07T03:22:56.796Z,84.38
2023-04-07T03:23:56.756Z,84.28
2023-04-07T03:24:56.749Z,84.28
2023-04-07T03:25:56.722Z,84.17
2023-04-07T03:26:56.719Z,84.28
2023-04-07T03:27:56.713Z,84.07
2023-04-07T03:28:56.711Z,84.28
2023-04-07T03:29:56.667Z,83.97
2023-04-07T03:30:56.706Z,83.97
2023-04-07T03:31:56.657Z,84.07
2023-04-07T03:32:56.686Z,84.07
2023-04-07T03:33:56.676Z,83.76
2023-04-07T03:34:56.640Z,83.65
2023-04-07T03:35:56.656Z,83.45
2023-04-07T03:36:56.867Z,83.45
2023-04-07T03:37:56.605Z,83.65
2023-04-07T03:38:56.607Z,83.76
2023-04-07T03:39:56.629Z,83.86
2023-04-07T03:40:56.594Z,83.97
2023-04-07T03:41:56.570Z,83.76
2023-04-07T03:42:56.559Z,83.86
2023-04-07T03:43:56.536Z,83.86
2023-04-07T03:44:56.556Z,83.45
2023-04-07T03:45:56.533Z,83.65
2023-04-07T03:46:56.516Z,83.86
2023-04-07T03:47:56.526Z,84.07
2023-04-07T03:48:56.506Z,84.28
2023-04-07T03:49:56.492Z,84.48
2023-04-07T03:50:56.499Z,84.59
2023-04-07T03:51:56.458Z,84.69
2023-04-07T03:52:56.455Z,84.69
2023-04-07T03:53:56.431Z,84.59
2023-04-07T03:54:56.462Z,85.00
2023-04-07T03:55:56.421Z,85.21
2023-04-07T03:56:56.426Z,85.31
2023-04-07T03:57:56.390Z,85.41
2023-04-07T03:58:56.396Z,85.41
2023-04-07T03:59:56.389Z,85.31
2023-04-07T04:00:56.391Z,85.31
2023-04-07T04:01:56.406Z,85.62
2023-04-07T04:02:56.498Z,85.72
2023-04-07T04:03:56.644Z,85.93
2023-04-07T04:04:56.394Z,86.03
2023-04-07T04:05:56.330Z,86.13
2023-04-07T04:06:56.355Z,85.93
2023-04-07T04:07:56.296Z,85.83
2023-04-07T04:08:56.292Z,85.52
2023-04-07T04:09:56.268Z,85.31
2023-04-07T04:10:56.278Z,85.31
2023-04-07T04:11:56.258Z,85.41
2023-04-07T04:12:56.265Z,85.62
2023-04-07T04:13:56.292Z,85.93
2023-04-07T04:14:56.266Z,86.03
2023-04-07T04:15:56.309Z,86.13
2023-04-07T04:16:56.222Z,86.13
2023-04-07T04:17:56.258Z,86.13
2023-04-07T04:18:56.184Z,85.93
2023-04-07T04:19:56.189Z,85.83
2023-04-07T04:20:56.181Z,86.24
2023-04-07T04:21:56.168Z,86.24
2023-04-07T04:22:56.163Z,86.13
2023-04-07T04:23:56.172Z,86.24
2023-04-07T04:24:56.152Z,86.34
2023-04-07T04:25:56.141Z,86.65
2023-04-07T04:26:56.143Z,86.65
2023-04-07T04:27:56.128Z,86.86
2023-04-07T04:28:56.095Z,87.07
2023-04-07T04:29:56.110Z,87.27
2023-04-07T04:30:56.137Z,87.27
2023-04-07T04:31:56.052Z,87.58
2023-04-07T04:32:56.105Z,87.58
2023-04-07T04:33:56.036Z,87.58
2023-04-07T04:34:56.033Z,87.68
2023-04-07T04:35:56.044Z,87.89
2023-04-07T04:36:56.087Z,88.10
2023-04-07T04:37:56.004Z,88.20
2023-04-07T04:38:56.003Z,87.99
2023-04-07T04:39:55.995Z,88.10
2023-04-07T04:40:55.998Z,88.20
2023-04-07T04:41:56.023Z,88.31
2023-04-07T04:42:55.967Z,88.20
2023-04-07T04:43:55.942Z,88.10
2023-04-07T04:44:55.957Z,87.99
2023-04-07T04:45:55.920Z,87.99
2023-04-07T04:46:55.984Z,88.10
2023-04-07T04:47:55.959Z,88.41
2023-04-07T04:48:55.901Z,88.31
2023-04-07T04:49:55.891Z,88.31
2023-04-07T04:50:55.886Z,88.10
2023-04-07T04:51:55.888Z,87.89
2023-04-07T04:52:55.906Z,87.89
2023-04-07T04:53:55.865Z,87.99
2023-04-07T04:54:55.844Z,88.20
2023-04-07T04:55:55.818Z,88.41
2023-04-07T04:56:55.809Z,88.51
2023-04-07T04:57:55.809Z,88.61
2023-04-07T04:58:55.823Z,88.71
2023-04-07T04:59:55.790Z,88.82
2023-04-07T05:00:55.830Z,88.82
2023-04-07T05:01:55.810Z,88.82
2023-04-07T05:02:56.034Z,88.92
2023-04-07T05:03:55.985Z,89.03
2023-04-07T05:04:55.867Z,89.13
2023-04-07T05:05:55.727Z,89.13
2023-04-07T05:06:55.725Z,89.03
2023-04-07T05:07:55.715Z,89.03
2023-04-07T05:08:55.697Z,88.92
2023-04-07T05:09:55.712Z,89.03
2023-04-07T05:10:55.661Z,89.13
2023-04-07T05:11:55.660Z,89.23
2023-04-07T05:12:55.642Z,89.34
2023-04-07T05:13:55.639Z,89.44
2023-04-07T05:14:55.626Z,89.65
2023-04-07T05:15:55.662Z,89.86
2023-04-07T05:16:55.603Z,90.16
2023-04-07T05:17:55.660Z,90.37
2023-04-07T05:18:55.605Z,90.58
2023-04-07T05:19:55.584Z,90.58
2023-04-07T05:20:55.572Z,90.58
2023-04-07T05:21:55.608Z,90.68
2023-04-07T05:22:55.559Z,90.68
2023-04-07T05:23:55.550Z,90.68
2023-04-07T05:24:55.530Z,90.47
2023-04-07T05:25:55.506Z,90.47
2023-04-07T05:26:55.550Z,90.47
2023-04-07T05:27:55.507Z,90.58
2023-04-07T05:28:55.496Z,90.68
2023-04-07T05:29:55.483Z,90.78
2023-04-07T05:30:55.475Z,90.89
2023-04-07T05:31:55.526Z,91.09
2023-04-07T05:32:55.527Z,91.20
2023-04-07T05:33:55.457Z,91.30
2023-04-07T05:34:55.430Z,91.40
2023-04-07T05:35:55.465Z,91.20
2023-04-07T05:36:55.418Z,90.99
2023-04-07T05:37:55.391Z,90.89
2023-04-07T05:38:55.404Z,90.78
2023-04-07T05:39:55.375Z,90.78
2023-04-07T05:40:55.374Z,90.58
2023-04-07T05:41:55.373Z,90.58
2023-04-07T05:42:55.347Z,90.89
2023-04-07T05:43:55.371Z,90.89
2023-04-07T05:44:55.317Z,90.99
2023-04-07T05:45:55.358Z,91.30
2023-04-07T05:46:55.308Z,91.30
2023-04-07T05:47:55.307Z,91.24
2023-04-07T05:48:55.277Z,91.20
2023-04-07T05:49:55.264Z,90.99
2023-04-07T05:50:55.268Z,90.68
2023-04-07T05:51:55.305Z,90.89
2023-04-07T05:52:55.265Z,90.89
2023-04-07T05:53:55.243Z,90.89
2023-04-07T05:54:55.256Z,91.20
2023-04-07T05:55:55.216Z,91.44
2023-04-07T05:56:55.206Z,91.65
2023-04-07T05:57:55.218Z,92.17
2023-04-07T05:58:55.187Z,92.68
2023-04-07T05:59:55.234Z,92.68
2023-04-07T06:00:55.170Z,92.38
2023-04-07T06:01:55.197Z,92.27
2023-04-07T06:02:55.302Z,91.86
2023-04-07T06:03:55.181Z,91.96
2023-04-07T06:04:55.211Z,91.96
2023-04-07T06:05:55.118Z,91.96
2023-04-07T06:06:55.120Z,92.17
2023-04-07T06:07:55.109Z,92.17
2023-04-07T06:08:55.113Z,92.38
2023-04-07T06:09:55.076Z,92.48
2023-04-07T06:10:55.083Z,92.58
2023-04-07T06:11:55.067Z,92.38
2023-04-07T06:12:55.058Z,92.07
2023-04-07T06:13:55.094Z,91.86
2023-04-07T06:14:55.023Z,91.86
2023-04-07T06:15:55.015Z,91.82
2023-04-07T06:16:55.008Z,91.92
2023-04-07T06:17:55.023Z,92.13
2023-04-07T06:18:54.994Z,92.33
2023-04-07T06:19:55.009Z,92.44
2023-04-07T06:20:54.981Z,92.02
2023-04-07T06:21:54.954Z,91.82
2023-04-07T06:22:54.962Z,91.92
2023-04-07T06:23:54.949Z,92.02
2023-04-07T06:24:54.938Z,92.02
2023-04-07T06:25:54.952Z,91.82
2023-04-07T06:26:54.929Z,91.40
2023-04-07T06:27:54.890Z,91.30
2023-04-07T06:28:54.902Z,91.50
2023-04-07T06:29:54.875Z,91.61
2023-04-07T06:30:55.146Z,91.30
2023-04-07T06:31:54.867Z,91.36
2023-04-07T06:32:54.992Z,91.46
2023-04-07T06:33:54.846Z,91.56
2023-04-07T06:34:54.833Z,91.67
2023-04-07T06:35:54.821Z,91.67
2023-04-07T06:36:56.341Z,91.67
2023-04-07T06:37:54.809Z,91.77
2023-04-07T06:38:54.790Z,91.67
2023-04-07T06:39:54.757Z,91.46
2023-04-07T06:40:54.770Z,91.46
2023-04-07T06:41:54.763Z,91.26
2023-04-07T06:42:54.784Z,91.16
2023-04-07T06:43:54.725Z,91.26
2023-04-07T06:44:54.721Z,91.26
2023-04-07T06:45:54.743Z,90.95
2023-04-07T06:46:54.724Z,90.95
2023-04-07T06:47:54.807Z,90.22
2023-04-07T06:48:54.717Z,89.61
2023-04-07T06:49:54.673Z,89.71
2023-04-07T06:50:54.664Z,89.40
2023-04-07T06:51:54.654Z,89.40
2023-04-07T06:52:54.642Z,89.71
2023-04-07T06:53:54.676Z,90.12
2023-04-07T06:54:54.644Z,90.64
2023-04-07T06:55:54.595Z,90.64
2023-04-07T06:56:54.737Z,90.33
2023-04-07T06:57:54.582Z,90.33
2023-04-07T06:58:54.595Z,89.61
2023-04-07T06:59:54.603Z,89.19
2023-04-07T07:00:54.566Z,89.29
2023-04-07T07:01:54.638Z,89.61
2023-04-07T07:02:54.643Z,89.71
2023-04-07T07:03:54.599Z,89.56
2023-04-07T07:04:54.516Z,88.84
2023-04-07T07:05:54.531Z,88.64
2023-04-07T07:06:54.491Z,88.64
2023-04-07T07:07:54.718Z,89.05
2023-04-07T07:08:54.483Z,88.64
2023-04-07T07:09:54.458Z,88.02
2023-04-07T07:10:54.496Z,87.60
2023-04-07T07:11:54.463Z,87.71
2023-04-07T07:12:54.452Z,88.32
2023-04-07T07:13:54.437Z,88.08
2023-04-07T07:14:54.443Z,87.50
2023-04-07T07:15:54.526Z,87.35
2023-04-07T07:16:54.454Z,86.94
2023-04-07T07:17:54.401Z,86.22
2023-04-07T07:18:54.375Z,86.02
2023-04-07T07:19:54.374Z,86.12
2023-04-07T07:20:54.365Z,86.53
2023-04-07T07:21:54.357Z,86.53
2023-04-07T07:22:54.381Z,86.32
2023-04-07T07:23:54.341Z,86.43
2023-04-07T07:24:54.312Z,86.63
2023-04-07T07:25:54.613Z,86.63
2023-04-07T07:26:54.314Z,86.74
2023-04-07T07:27:54.288Z,87.15
2023-04-07T07:28:54.307Z,87.26
2023-04-07T07:29:54.283Z,87.26
2023-04-07T07:30:54.300Z,87.35
2023-04-07T07:31:55.149Z,87.98
2023-04-07T07:32:54.369Z,87.87
2023-04-07T07:33:54.260Z,88.39
2023-04-07T07:34:54.208Z,89.11
2023-04-07T07:35:54.218Z,88.70
2023-04-07T07:36:54.196Z,88.49
2023-04-07T07:37:54.191Z,88.56
2023-04-07T07:38:54.461Z,88.35
2023-04-07T07:39:54.156Z,88.29
2023-04-07T07:40:54.150Z,88.24
2023-04-07T07:41:54.189Z,88.04
2023-04-07T07:42:54.147Z,87.32
2023-04-07T07:43:54.146Z,87.42
2023-04-07T07:44:54.163Z,87.21
2023-04-07T07:45:54.115Z,86.70
2023-04-07T07:46:54.120Z,86.08
2023-04-07T07:47:54.146Z,86.70
2023-04-07T07:48:54.160Z,86.39
2023-04-07T07:49:54.114Z,86.08
2023-04-07T07:50:54.086Z,86.08
2023-04-07T07:51:54.053Z,86.29
2023-04-07T07:52:54.034Z,86.18
2023-04-07T07:53:54.030Z,85.67
2023-04-07T07:54:54.011Z,85.46
2023-04-07T07:55:54.016Z,85.57
2023-04-07T07:56:53.998Z,85.46
2023-04-07T07:57:53.978Z,84.43
2023-04-07T07:58:53.981Z,83.91
2023-04-07T07:59:53.980Z,84.84
2023-04-07T08:00:53.976Z,85.46
2023-04-07T08:01:53.961Z,85.46
2023-04-07T08:02:53.996Z,85.97
2023-04-07T08:03:54.252Z,85.15
2023-04-07T08:04:53.935Z,85.81
2023-04-07T08:05:53.939Z,86.02
2023-04-07T08:06:53.913Z,86.02
2023-04-07T08:07:54.793Z,86.88
2023-04-07T08:08:53.887Z,87.29
2023-04-07T08:09:53.877Z,87.50
2023-04-07T08:10:53.852Z,87.60
2023-04-07T08:11:53.872Z,88.12
2023-04-07T08:12:53.838Z,88.68
2023-04-07T08:13:53.842Z,88.98
2023-04-07T08:14:53.826Z,89.40
2023-04-07T08:15:53.824Z,89.50
2023-04-07T08:16:53.790Z,89.19
2023-04-07T08:17:55.507Z,88.92
2023-04-07T08:18:53.774Z,89.34
2023-04-07T08:19:53.759Z,89.03
2023-04-07T08:20:53.775Z,88.41
2023-04-07T08:21:53.751Z,89.23
2023-04-07T08:22:53.739Z,90.16
2023-04-07T08:23:53.760Z,90.37
2023-04-07T08:24:53.758Z,90.47
2023-04-07T08:25:53.718Z,90.99
2023-04-07T08:26:53.700Z,90.47
2023-04-07T08:27:53.689Z,90.53
2023-04-07T08:28:53.678Z,89.29
2023-04-07T08:29:53.715Z,89.61
2023-04-07T08:30:53.645Z,89.92
2023-04-07T08:31:53.662Z,90.33
2023-04-07T08:32:53.750Z,91.05
2023-04-07T08:33:53.620Z,91.05
2023-04-07T08:34:53.621Z,90.84
2023-04-07T08:35:53.686Z,90.08
2023-04-07T08:36:53.589Z,88.32
2023-04-07T08:37:53.574Z,86.98
2023-04-07T08:38:53.561Z,86.57
2023-04-07T08:39:53.560Z,86.88
2023-04-07T08:40:53.552Z,87.87
2023-04-07T08:41:53.557Z,88.29
2023-04-07T08:42:53.536Z,88.08
2023-04-07T08:43:53.522Z,87.87
2023-04-07T08:44:53.498Z,87.66
2023-04-07T08:45:53.692Z,86.60
2023-04-07T08:46:53.580Z,86.18
2023-04-07T08:47:53.545Z,85.77
2023-04-07T08:48:53.470Z,85.05
2023-04-07T08:49:53.460Z,84.64
2023-04-07T08:50:53.443Z,84.88
2023-04-07T08:51:53.433Z,85.30
2023-04-07T08:52:53.459Z,86.43
2023-04-07T08:53:53.440Z,85.91
2023-04-07T08:54:53.403Z,85.81
2023-04-07T08:55:53.403Z,86.29
2023-04-07T08:56:53.372Z,86.08
2023-04-07T08:57:53.392Z,86.08
2023-04-07T08:58:53.356Z,86.70
2023-04-07T08:59:53.357Z,87.26
2023-04-07T09:00:53.354Z,88.39
2023-04-07T09:01:53.355Z,88.18
2023-04-07T09:02:53.407Z,89.11
2023-04-07T09:03:53.427Z,88.43
2023-04-07T09:04:53.313Z,89.15
2023-04-07T09:05:53.298Z,89.67
2023-04-07T09:06:53.302Z,89.98
2023-04-07T09:07:53.778Z,90.45
2023-04-07T09:08:54.205Z,90.25
2023-04-07T09:09:53.264Z,90.25
2023-04-07T09:10:53.241Z,90.14
2023-04-07T09:11:53.248Z,91.07
2023-04-07T09:12:53.206Z,91.58
2023-04-07T09:13:53.241Z,90.76
2023-04-07T09:14:53.191Z,90.55
2023-04-07T09:15:53.176Z,90.55
2023-04-07T09:16:53.271Z,90.55
2023-04-07T09:17:53.203Z,90.35
2023-04-07T09:18:53.175Z,89.62
2023-04-07T09:19:53.154Z,89.62
2023-04-07T09:20:53.131Z,89.52
2023-04-07T09:21:53.141Z,90.25
2023-04-07T09:22:53.132Z,90.55
2023-04-07T09:23:53.158Z,89.62
2023-04-07T09:24:53.131Z,89.11
2023-04-07T09:25:53.084Z,89.73
2023-04-07T09:26:53.088Z,89.52
2023-04-07T09:27:53.085Z,88.90
2023-04-07T09:28:53.073Z,89.73
2023-04-07T09:29:53.063Z,90.04
2023-04-07T09:30:53.068Z,90.04
2023-04-07T09:31:53.086Z,90.04
2023-04-07T09:32:53.038Z,89.94
2023-04-07T09:33:53.016Z,91.17
2023-04-07T09:34:52.997Z,90.97
2023-04-07T09:35:53.048Z,90.86
2023-04-07T09:36:52.969Z,89.58
2023-04-07T09:37:52.971Z,88.70
2023-04-07T09:38:52.985Z,89.01
2023-04-07T09:39:52.973Z,90.04
2023-04-07T09:40:52.950Z,89.94
2023-04-07T09:41:52.963Z,90.00
2023-04-07T09:42:52.905Z,89.48
2023-04-07T09:43:52.919Z,89.07
2023-04-07T09:44:52.893Z,89.28
2023-04-07T09:45:52.927Z,90.31
2023-04-07T09:46:52.896Z,90.20
2023-04-07T09:47:52.917Z,90.26
2023-04-07T09:48:52.859Z,90.37
2023-04-07T09:49:52.852Z,87.99
2023-04-07T09:50:52.859Z,87.59
2023-04-07T09:51:52.877Z,87.90
2023-04-07T09:52:52.887Z,88.41
2023-04-07T09:53:52.850Z,88.92
2023-04-07T09:54:52.840Z,88.89
2023-04-07T09:55:52.827Z,89.71
2023-04-07T09:56:52.781Z,90.01
2023-04-07T09:57:52.835Z,89.09
2023-04-07T09:58:52.753Z,87.51
2023-04-07T09:59:52.752Z,86.31
2023-04-07T10:00:52.756Z,87.24
2023-04-07T10:01:54.430Z,87.65
2023-04-07T10:02:52.901Z,88.26
2023-04-07T10:03:52.757Z,87.81
2023-04-07T10:04:52.700Z,86.21
2023-04-07T10:05:52.716Z,86.41
2023-04-07T10:06:52.697Z,87.96
2023-04-07T10:07:52.688Z,88.06
2023-04-07T10:08:52.682Z,87.03
2023-04-07T10:09:52.658Z,85.96
2023-04-07T10:10:52.626Z,86.37
2023-04-07T10:11:52.664Z,88.64
2023-04-07T10:12:52.630Z,88.64
2023-04-07T10:13:52.613Z,88.08
2023-04-07T10:14:52.605Z,86.64
2023-04-07T10:15:52.602Z,85.51
2023-04-07T10:16:52.660Z,87.46
2023-04-07T10:17:52.621Z,86.95
2023-04-07T10:18:52.568Z,87.26
2023-04-07T10:19:52.565Z,88.49
2023-04-07T10:20:52.547Z,86.85
2023-04-07T10:21:52.551Z,85.41
2023-04-07T10:22:52.571Z,85.41
2023-04-07T10:23:52.534Z,87.26
2023-04-07T10:24:52.519Z,85.51
2023-04-07T10:25:52.484Z,85.30
2023-04-07T10:26:52.467Z,86.02
2023-04-07T10:27:52.480Z,86.33
2023-04-07T10:28:52.496Z,85.88
2023-04-07T10:29:52.446Z,85.16
2023-04-07T10:30:52.482Z,84.54
2023-04-07T10:31:52.452Z,83.51
2023-04-07T10:32:52.438Z,83.83
2023-04-07T10:33:52.796Z,84.64
2023-04-07T10:34:52.486Z,84.71
2023-04-07T10:35:52.463Z,84.91
2023-04-07T10:36:52.378Z,85.84
2023-04-07T10:37:52.387Z,85.74
2023-04-07T10:38:52.361Z,84.81
2023-04-07T10:39:52.359Z,84.91
2023-04-07T10:40:52.370Z,84.91
2023-04-07T10:41:52.319Z,84.09
2023-04-07T10:42:52.321Z,83.68
2023-04-07T10:43:52.309Z,83.06
2023-04-07T10:44:52.337Z,83.17
2023-04-07T10:45:52.393Z,82.86
2023-04-07T10:46:52.377Z,83.23
2023-04-07T10:47:52.334Z,83.54
2023-04-07T10:48:52.242Z,83.64
2023-04-07T10:49:52.243Z,83.03
2023-04-07T10:50:52.238Z,82.71
2023-04-07T10:51:52.247Z,81.07
2023-04-07T10:52:52.203Z,81.79
2023-04-07T10:53:52.391Z,82.10
2023-04-07T10:54:52.209Z,81.62
2023-04-07T10:55:52.212Z,81.79
2023-04-07T10:56:52.221Z,82.41
2023-04-07T10:57:52.180Z,81.59
2023-04-07T10:58:52.181Z,81.38
2023-04-07T10:59:52.154Z,81.83
2023-04-07T11:00:52.137Z,80.19
2023-04-07T11:01:52.209Z,83.06
2023-04-07T11:02:52.292Z,83.11
2023-04-07T11:03:52.324Z,83.51
2023-04-07T11:04:52.206Z,84.13
2023-04-07T11:05:52.088Z,83.55
2023-04-07T11:06:52.065Z,83.76
2023-04-07T11:07:52.066Z,83.76
2023-04-07T11:08:52.078Z,82.42
2023-04-07T11:09:52.036Z,82.83
2023-04-07T11:10:52.053Z,81.91
2023-04-07T11:11:52.088Z,84.17
2023-04-07T11:12:52.019Z,85.51
2023-04-07T11:13:52.017Z,84.99
2023-04-07T11:14:52.015Z,85.92
2023-04-07T11:15:52.065Z,84.17
2023-04-07T11:16:51.972Z,83.97
2023-04-07T11:17:52.003Z,84.38
2023-04-07T11:18:51.965Z,84.58
2023-04-07T11:19:51.968Z,84.89
2023-04-07T11:20:51.945Z,85.51
2023-04-07T11:21:51.972Z,84.17
2023-04-07T11:22:51.916Z,82.69
2023-04-07T11:23:52.072Z,81.76
2023-04-07T11:24:51.930Z,78.89
2023-04-07T11:25:51.880Z,79.09
2023-04-07T11:26:51.872Z,79.71
2023-04-07T11:27:51.864Z,80.74
2023-04-07T11:28:51.854Z,80.43
2023-04-07T11:29:51.839Z,80.43
2023-04-07T11:30:52.169Z,80.22
2023-04-07T11:31:51.854Z,79.91
2023-04-07T11:32:51.836Z,80.43
2023-04-07T11:33:51.788Z,79.71
2023-04-07T11:34:51.783Z,79.50
2023-04-07T11:35:51.951Z,79.40
2023-04-07T11:36:51.796Z,80.33
2023-04-07T11:37:51.756Z,80.84
2023-04-07T11:38:51.763Z,79.30
2023-04-07T11:39:51.747Z,78.78
2023-04-07T11:40:51.741Z,78.58
2023-04-07T11:41:51.767Z,79.19
2023-04-07T11:42:51.748Z,79.50
2023-04-07T11:43:51.701Z,79.57
2023-04-07T11:44:51.703Z,79.88
2023-04-07T11:45:51.689Z,80.08
2023-04-07T11:46:51.743Z,79.98
2023-04-07T11:47:51.706Z,80.19
2023-04-07T11:48:51.643Z,77.92
2023-04-07T11:49:51.674Z,77.92
2023-04-07T11:50:51.634Z,78.33
2023-04-07T11:51:51.625Z,77.10
2023-04-07T11:52:51.629Z,77.62
2023-04-07T11:53:51.612Z,78.33
2023-04-07T11:54:51.614Z,79.16
2023-04-07T11:55:51.608Z,78.75
2023-04-07T11:56:51.583Z,77.72
2023-04-07T11:57:51.560Z,77.72
2023-04-07T11:58:51.564Z,78.64
2023-04-07T11:59:51.533Z,77.72
2023-04-07T12:00:51.558Z,77.82
2023-04-07T12:01:51.571Z,77.24
2023-04-07T12:02:51.723Z,77.75
2023-04-07T12:03:52.044Z,77.86
2023-04-07T12:04:51.515Z,77.92
2023-04-07T12:05:51.472Z,78.13
2023-04-07T12:06:51.570Z,78.33
2023-04-07T12:07:51.446Z,78.75
2023-04-07T12:08:51.465Z,78.33
2023-04-07T12:09:51.434Z,78.03
2023-04-07T12:10:51.443Z,76.86
2023-04-07T12:11:51.462Z,76.55
2023-04-07T12:12:51.433Z,76.35
2023-04-07T12:13:51.400Z,76.25
2023-04-07T12:14:51.403Z,76.45
2023-04-07T12:15:51.375Z,77.17
2023-04-07T12:16:51.439Z,76.86
2023-04-07T12:17:51.804Z,76.97
2023-04-07T12:18:51.337Z,77.68
2023-04-07T12:19:51.335Z,78.40
2023-04-07T12:20:51.323Z,78.81
2023-04-07T12:21:51.328Z,77.99
2023-04-07T12:22:51.296Z,78.61
2023-04-07T12:23:51.489Z,78.81
2023-04-07T12:24:51.291Z,77.10
2023-04-07T12:25:51.276Z,76.48
2023-04-07T12:26:51.293Z,77.20
2023-04-07T12:27:51.264Z,78.23
2023-04-07T12:28:51.267Z,77.99
2023-04-07T12:29:51.263Z,77.48
2023-04-07T12:30:51.245Z,76.86
2023-04-07T12:31:51.587Z,75.52
2023-04-07T12:32:51.278Z,75.12
2023-04-07T12:33:51.267Z,75.01
2023-04-07T12:34:51.176Z,75.52
2023-04-07T12:35:51.301Z,75.63
2023-04-07T12:36:51.169Z,76.65
2023-04-07T12:37:51.140Z,76.42
2023-04-07T12:38:51.145Z,74.87
2023-04-07T12:39:51.146Z,74.26
2023-04-07T12:40:51.154Z,74.67
2023-04-07T12:41:51.121Z,74.87
2023-04-07T12:42:51.111Z,75.70
2023-04-07T12:43:51.236Z,76.21
2023-04-07T12:44:51.079Z,75.18
2023-04-07T12:45:51.141Z,75.70
2023-04-07T12:46:51.096Z,75.18
2023-04-07T12:47:51.117Z,74.63
2023-04-07T12:48:51.060Z,74.84
2023-04-07T12:49:51.037Z,75.15
2023-04-07T12:50:51.032Z,75.66
2023-04-07T12:51:51.045Z,75.97
2023-04-07T12:52:51.016Z,76.07